Time;durP1;ratioP1;P1;durP2;ratioP2;P2;SDS_P1;SDS_P2;PMS_P1;PMS_P2;Temp;Humidity;BMP_temperature;BMP_pressure;BME280_temperature;BME280_humidity;BME280_pressure;Samples;Min_cycle;Max_cycle;Signal;HPM_P1;HPM_P2
2023/10/08 00:02:05;;;;;;;0.28;0.05;;;13.90;99.90;;;;;;5111012;27;20327;-72
2023/10/08 00:04:38;;;;;;;0.13;0.05;;;13.90;99.90;;;;;;5110544;27;20063;-73
2023/10/08 00:07:07;;;;;;;0.17;0.00;;;13.80;99.90;;;;;;5085701;27;20515;-72
2023/10/08 00:09:35;;;;;;;0.17;0.10;;;13.70;99.90;;;;;;5110659;27;20035;-70
2023/10/08 00:12:02;;;;;;;0.10;0.03;;;13.70;99.90;;;;;;5095549;28;20112;-71
2023/10/08 00:14:28;;;;;;;0.10;0.08;;;13.60;99.90;;;;;;5111854;27;20154;-71
2023/10/08 00:16:54;;;;;;;0.47;0.20;;;13.50;99.90;;;;;;5110865;27;20039;-71
2023/10/08 00:19:21;;;;;;;0.30;0.20;;;13.50;99.90;;;;;;5114239;27;20031;-70
2023/10/08 00:21:48;;;;;;;0.57;0.17;;;13.40;99.90;;;;;;5110917;27;20050;-71
2023/10/08 00:24:15;;;;;;;0.10;0.03;;;13.40;99.90;;;;;;5114143;27;20145;-72
2023/10/08 00:26:41;;;;;;;0.30;0.00;;;13.40;99.90;;;;;;5112171;27;20039;-71
2023/10/08 00:29:24;;;;;;;0.10;0.00;;;13.40;99.90;;;;;;5109613;27;20038;-71
2023/10/08 00:31:50;;;;;;;0.10;0.00;;;13.50;99.90;;;;;;5114222;27;20039;-70
2023/10/08 00:34:19;;;;;;;0.10;0.00;;;13.40;99.90;;;;;;5096683;27;20039;-70
2023/10/08 00:36:47;;;;;;;0.25;0.15;;;13.50;99.90;;;;;;5110770;27;20039;-70
2023/10/08 00:39:14;;;;;;;3.35;0.00;;;13.50;99.90;;;;;;5111007;27;20050;-71
2023/10/08 00:41:44;;;;;;;0.00;0.00;;;13.50;99.90;;;;;;5114204;27;20046;-70
2023/10/08 00:47:11;;;;;;;0.00;0.00;;;13.40;99.90;;;;;;5078260;27;20044;-71
2023/10/08 00:57:21;;;;;;;1.75;0.10;;;13.30;99.90;;;;;;5109434;27;20134;-71
2023/10/08 00:59:52;;;;;;;0.17;0.00;;;13.30;99.90;;;;;;5109207;27;20047;-71
2023/10/08 01:02:49;;;;;;;0.15;0.10;;;13.30;99.90;;;;;;5111623;27;20031;-71
2023/10/08 01:05:18;;;;;;;0.22;0.10;;;13.30;99.90;;;;;;5105065;27;20445;-71
2023/10/08 01:07:45;;;;;;;3.33;0.17;;;13.30;99.90;;;;;;5106227;27;20039;-71
2023/10/08 01:10:13;;;;;;;0.75;0.10;;;13.30;99.90;;;;;;5107342;27;20106;-71
2023/10/08 01:12:55;;;;;;;0.32;0.17;;;13.20;99.90;;;;;;5088172;27;20142;-71
2023/10/08 01:15:32;;;;;;;0.25;0.10;;;13.20;99.90;;;;;;5109785;27;20526;-71
2023/10/08 01:18:15;;;;;;;0.17;0.17;;;13.20;99.90;;;;;;5103961;27;20111;-71
2023/10/08 01:23:13;;;;;;;0.40;0.10;;;13.20;99.90;;;;;;5112006;27;20042;-71
2023/10/08 01:25:40;;;;;;;0.15;0.10;;;13.20;99.90;;;;;;5109289;27;20039;-71
2023/10/08 01:28:20;;;;;;;6.50;0.28;;;13.20;99.90;;;;;;5093422;27;20035;-71
2023/10/08 01:30:47;;;;;;;1.27;0.20;;;13.20;99.90;;;;;;5111092;27;20035;-71
2023/10/08 01:33:15;;;;;;;0.60;0.28;;;13.10;99.90;;;;;;5109439;27;20050;-71
2023/10/08 01:35:42;;;;;;;0.63;0.30;;;13.10;99.90;;;;;;5110396;27;20054;-72
2023/10/08 01:38:13;;;;;;;0.32;0.13;;;13.10;99.90;;;;;;5107917;27;20035;-72
2023/10/08 01:40:40;;;;;;;0.55;0.20;;;13.10;99.90;;;;;;5106512;27;20074;-71
2023/10/08 01:43:06;;;;;;;0.57;0.30;;;13.00;99.90;;;;;;5112023;27;20150;-72
2023/10/08 01:45:32;;;;;;;0.43;0.20;;;13.00;99.90;;;;;;5084477;28;20087;-71
2023/10/08 01:47:58;;;;;;;1.15;0.32;;;13.00;99.90;;;;;;5085985;28;20044;-71
2023/10/08 01:50:29;;;;;;;0.40;0.10;;;13.00;99.90;;;;;;5087650;28;20561;-72
2023/10/08 01:52:55;;;;;;;0.45;0.20;;;13.00;99.90;;;;;;5088901;28;20039;-71
2023/10/08 01:55:22;;;;;;;0.93;0.20;;;13.00;99.90;;;;;;5086664;28;20044;-71
2023/10/08 01:57:51;;;;;;;0.30;0.10;;;13.00;99.90;;;;;;5087809;28;20474;-71
2023/10/08 02:00:19;;;;;;;0.30;0.10;;;13.00;99.90;;;;;;5089020;28;20044;-70
2023/10/08 02:02:53;;;;;;;0.28;0.10;;;13.00;99.90;;;;;;5086069;28;20044;-70
2023/10/08 02:05:20;;;;;;;0.60;0.00;;;13.00;99.90;;;;;;5079586;28;20115;-72
2023/10/08 02:07:46;;;;;;;0.10;0.00;;;13.00;99.90;;;;;;5074577;28;20040;-71
2023/10/08 02:10:14;;;;;;;0.43;0.20;;;13.00;99.90;;;;;;5087180;28;20093;-71
2023/10/08 02:12:40;;;;;;;0.10;0.10;;;13.00;99.90;;;;;;5088252;28;20042;-71
2023/10/08 02:15:08;;;;;;;0.30;0.20;;;13.00;99.90;;;;;;5078699;28;20028;-71
2023/10/08 02:17:34;;;;;;;0.20;0.10;;;13.00;99.90;;;;;;5071999;28;20047;-71
2023/10/08 02:20:00;;;;;;;0.20;0.00;;;13.00;99.90;;;;;;5086129;28;20051;-71
2023/10/08 02:22:27;;;;;;;0.25;0.00;;;13.00;99.90;;;;;;5088476;28;20040;-71
2023/10/08 02:24:53;;;;;;;0.00;0.00;;;13.00;99.90;;;;;;5087515;28;20458;-71
2023/10/08 02:27:19;;;;;;;0.20;0.10;;;13.10;99.90;;;;;;5087833;28;20036;-71
2023/10/08 02:29:44;;;;;;;0.00;0.00;;;13.00;99.90;;;;;;5087963;28;20174;-70
2023/10/08 02:32:10;;;;;;;0.03;0.00;;;13.00;99.90;;;;;;5086552;28;20044;-71
2023/10/08 02:34:36;;;;;;;0.22;0.00;;;13.00;99.90;;;;;;5085711;28;20073;-71
2023/10/08 02:37:03;;;;;;;0.57;0.13;;;13.10;99.90;;;;;;5069668;28;20420;-71
2023/10/08 02:39:32;;;;;;;0.13;0.03;;;13.00;99.90;;;;;;5086897;28;20036;-72
2023/10/08 02:41:59;;;;;;;0.30;0.10;;;13.10;99.90;;;;;;5086925;28;20097;-71
2023/10/08 02:44:27;;;;;;;0.30;0.00;;;13.00;99.90;;;;;;5087171;28;20042;-70
2023/10/08 02:46:54;;;;;;;0.20;0.10;;;13.00;99.90;;;;;;5090746;28;20051;-71
2023/10/08 02:49:22;;;;;;;0.20;0.10;;;13.00;99.90;;;;;;5085218;28;20040;-70
2023/10/08 02:51:51;;;;;;;0.10;0.00;;;13.00;99.90;;;;;;5085697;28;20093;-70
2023/10/08 02:54:22;;;;;;;0.10;0.00;;;13.00;99.90;;;;;;5081492;28;20111;-70
2023/10/08 02:56:57;;;;;;;0.10;0.00;;;13.00;99.90;;;;;;5087005;28;20397;-70
2023/10/08 02:59:24;;;;;;;0.00;0.00;;;13.00;99.90;;;;;;5085082;28;20047;-70
2023/10/08 03:01:55;;;;;;;0.00;0.00;;;13.00;99.90;;;;;;5089666;28;20078;-70
2023/10/08 03:04:22;;;;;;;0.10;0.00;;;13.00;99.90;;;;;;5086628;28;20063;-70
2023/10/08 03:06:54;;;;;;;0.10;0.03;;;12.90;99.90;;;;;;5086164;28;20048;-70
2023/10/08 03:09:23;;;;;;;0.00;0.00;;;13.00;99.90;;;;;;5092291;28;20398;-70
2023/10/08 03:11:52;;;;;;;0.20;0.05;;;12.90;99.90;;;;;;5085858;28;20060;-70
2023/10/08 03:14:26;;;;;;;0.15;0.00;;;13.00;99.90;;;;;;5072791;28;20126;-71
2023/10/08 03:16:53;;;;;;;0.10;0.00;;;13.00;99.90;;;;;;5088383;28;20028;-70
2023/10/08 03:19:21;;;;;;;0.40;0.13;;;12.90;99.90;;;;;;5087805;28;20411;-71
2023/10/08 03:21:50;;;;;;;0.40;0.08;;;12.90;99.90;;;;;;5088005;28;20051;-71
2023/10/08 03:24:37;;;;;;;0.60;0.10;;;12.90;99.90;;;;;;5073340;28;20040;-72
2023/10/08 03:27:20;;;;;;;0.10;0.00;;;12.90;99.90;;;;;;5080268;28;20076;-72
2023/10/08 03:29:48;;;;;;;0.08;0.00;;;12.90;99.90;;;;;;5083231;28;20132;-72
2023/10/08 03:32:17;;;;;;;0.10;0.00;;;12.90;99.90;;;;;;5064858;28;20047;-70
2023/10/08 03:34:50;;;;;;;0.03;0.00;;;12.80;99.90;;;;;;5088372;28;20046;-70
2023/10/08 03:37:29;;;;;;;0.15;0.10;;;12.80;99.90;;;;;;5089128;28;20036;-71
2023/10/08 03:40:24;;;;;;;0.20;0.10;;;12.80;99.90;;;;;;5087320;28;20040;-70
2023/10/08 03:42:55;;;;;;;3.33;0.10;;;12.80;99.90;;;;;;5081780;28;20074;-70
2023/10/08 03:48:08;;;;;;;0.00;0.00;;;12.80;99.90;;;;;;5107332;27;20035;-71
2023/10/08 03:50:41;;;;;;;0.00;0.00;;;12.80;99.90;;;;;;5112437;27;20444;-71
2023/10/08 03:53:11;;;;;;;0.40;0.10;;;12.80;99.90;;;;;;5091934;27;20031;-71
2023/10/08 03:55:40;;;;;;;1.27;0.30;;;12.80;99.90;;;;;;5113539;27;20125;-71
2023/10/08 03:58:27;;;;;;;0.35;0.10;;;12.70;99.90;;;;;;5095023;27;20038;-71
2023/10/08 04:01:08;;;;;;;0.63;0.20;;;12.80;99.90;;;;;;5112270;27;20042;-71
2023/10/08 04:06:28;;;;;;;0.20;0.08;;;12.80;99.90;;;;;;5107918;27;20366;-71
2023/10/08 04:09:10;;;;;;;0.45;0.10;;;12.80;99.90;;;;;;5111873;27;20158;-71
2023/10/08 04:11:51;;;;;;;0.25;0.10;;;12.80;99.90;;;;;;5110604;27;20035;-71
2023/10/08 04:14:21;;;;;;;0.73;0.10;;;12.80;99.90;;;;;;5111449;27;20035;-71
2023/10/08 04:16:51;;;;;;;4.50;0.28;;;12.80;99.90;;;;;;5108513;27;20039;-71
2023/10/08 04:19:21;;;;;;;0.10;0.00;;;12.80;99.90;;;;;;5112034;27;20035;-71
2023/10/08 04:21:53;;;;;;;1.27;0.15;;;12.80;99.90;;;;;;5111097;27;20050;-70
2023/10/08 04:24:36;;;;;;;0.40;0.00;;;12.80;99.90;;;;;;5109835;27;20035;-70
2023/10/08 04:27:03;;;;;;;0.10;0.00;;;12.80;99.90;;;;;;5109252;27;20494;-71
2023/10/08 04:29:32;;;;;;;0.00;0.00;;;12.80;99.90;;;;;;5112076;27;20050;-71
2023/10/08 04:32:07;;;;;;;0.30;0.10;;;12.80;99.90;;;;;;5108948;27;20047;-71
2023/10/08 04:34:34;;;;;;;0.10;0.00;;;12.80;99.90;;;;;;5112887;27;20035;-71
2023/10/08 04:37:12;;;;;;;0.10;0.00;;;12.80;99.90;;;;;;5108034;27;20066;-71
2023/10/08 04:39:40;;;;;;;0.82;0.25;;;12.80;99.90;;;;;;5109153;27;20487;-71
2023/10/08 04:42:10;;;;;;;0.10;0.00;;;12.80;99.90;;;;;;5112682;27;20045;-70
2023/10/08 04:44:39;;;;;;;1.15;0.20;;;12.90;99.90;;;;;;5109583;27;20027;-70
2023/10/08 04:47:06;;;;;;;0.20;0.00;;;12.80;99.90;;;;;;5110764;27;20491;-70
2023/10/08 04:49:34;;;;;;;1.38;0.10;;;12.90;99.90;;;;;;5113778;27;20036;-70
2023/10/08 04:52:14;;;;;;;0.00;0.00;;;12.90;99.90;;;;;;5110885;27;20447;-70
2023/10/08 04:54:46;;;;;;;0.95;0.08;;;12.90;99.90;;;;;;5112371;27;20042;-70
2023/10/08 04:57:15;;;;;;;0.22;0.00;;;12.90;99.90;;;;;;5107505;27;20100;-71
2023/10/08 04:59:46;;;;;;;0.00;0.00;;;12.90;99.90;;;;;;5093339;27;20035;-71
2023/10/08 05:02:33;;;;;;;0.03;0.03;;;12.90;99.90;;;;;;5110154;27;20193;-71
2023/10/08 05:18:37;;;;;;;0.40;0.10;;;12.80;99.90;;;;;;5041745;27;20417;-71
2023/10/08 05:21:25;;;;;;;2.67;0.30;;;12.80;99.90;;;;;;5111365;27;20078;-71
2023/10/08 05:24:08;;;;;;;0.95;0.00;;;12.80;99.90;;;;;;5103959;27;20502;-70
2023/10/08 05:26:42;;;;;;;4.28;0.15;;;12.80;99.90;;;;;;5124603;27;20450;-70
2023/10/08 05:32:30;;;;;;;0.13;0.10;;;12.80;99.90;;;;;;5108249;27;20103;-70
2023/10/08 05:34:56;;;;;;;1.17;0.10;;;12.80;99.90;;;;;;5106931;27;20040;-70
2023/10/08 05:37:41;;;;;;;0.43;0.10;;;12.70;99.90;;;;;;5100417;27;20464;-70
2023/10/08 05:40:20;;;;;;;0.30;0.00;;;12.70;99.90;;;;;;5108150;27;20035;-71
2023/10/08 05:42:46;;;;;;;0.75;0.00;;;12.70;99.90;;;;;;5091093;27;20050;-70
2023/10/08 05:47:41;;;;;;;0.20;0.03;;;12.70;99.90;;;;;;5105820;27;20039;-69
2023/10/08 05:58:13;;;;;;;6.50;0.52;;;12.70;99.90;;;;;;5110259;27;20051;-70
2023/10/08 06:03:47;;;;;;;0.00;0.00;;;12.70;99.90;;;;;;5106819;27;20531;-70
2023/10/08 06:11:44;;;;;;;1.02;0.10;;;12.90;99.90;;;;;;5104852;27;20043;-71
2023/10/08 06:14:26;;;;;;;1.03;0.10;;;12.90;99.90;;;;;;5104119;27;20486;-71
2023/10/08 06:17:13;;;;;;;0.20;0.00;;;12.90;99.90;;;;;;5110597;27;20046;-70
2023/10/08 06:19:39;;;;;;;0.50;0.05;;;12.90;99.90;;;;;;5102049;27;20100;-69
2023/10/08 06:22:05;;;;;;;0.63;0.20;;;12.90;99.90;;;;;;5108064;27;20559;-69
2023/10/08 06:24:33;;;;;;;0.10;0.05;;;12.90;99.90;;;;;;5089409;27;20043;-70
2023/10/08 06:27:04;;;;;;;3.08;0.10;;;12.90;99.90;;;;;;5111700;27;20043;-70
2023/10/08 06:29:31;;;;;;;0.75;0.10;;;12.90;99.90;;;;;;5085799;27;20035;-70
2023/10/08 06:32:01;;;;;;;0.77;0.20;;;12.90;99.90;;;;;;5107687;27;20081;-70
2023/10/08 06:34:28;;;;;;;0.32;0.00;;;13.00;99.90;;;;;;5107166;27;20052;-70
2023/10/08 06:36:57;;;;;;;0.10;0.00;;;12.90;99.90;;;;;;5108368;27;20043;-71
2023/10/08 06:39:47;;;;;;;0.00;0.00;;;13.00;99.90;;;;;;5109301;28;20335;-71
2023/10/08 06:42:17;;;;;;;0.30;0.10;;;13.00;99.90;;;;;;5109016;28;20089;-70
2023/10/08 06:44:46;;;;;;;0.85;0.10;;;13.00;99.90;;;;;;5108722;27;20095;-70
2023/10/08 06:47:15;;;;;;;0.10;0.10;;;13.10;99.90;;;;;;5109245;28;20090;-70
2023/10/08 06:49:43;;;;;;;0.52;0.25;;;13.10;99.90;;;;;;5111384;28;20039;-71
2023/10/08 06:52:12;;;;;;;0.60;0.20;;;13.10;99.90;;;;;;5104854;28;20043;-71
2023/10/08 06:54:38;;;;;;;0.10;0.00;;;13.10;99.90;;;;;;5094889;28;20406;-70
2023/10/08 06:57:04;;;;;;;0.13;0.10;;;13.10;99.90;;;;;;5105317;28;20039;-70
2023/10/08 06:59:31;;;;;;;0.75;0.30;;;13.10;99.90;;;;;;5108944;28;20068;-71
2023/10/08 07:01:58;;;;;;;2.60;0.45;;;13.20;99.90;;;;;;5104698;28;20396;-70
2023/10/08 07:04:24;;;;;;;0.73;0.05;;;13.10;99.90;;;;;;5112003;28;20541;-71
2023/10/08 07:06:50;;;;;;;0.30;0.20;;;13.10;99.90;;;;;;5099660;28;20031;-71
2023/10/08 07:09:29;;;;;;;0.77;0.20;;;13.20;99.90;;;;;;5109780;28;20113;-71
2023/10/08 07:11:58;;;;;;;2.97;0.13;;;13.10;99.90;;;;;;5102700;28;20035;-70
2023/10/08 07:14:28;;;;;;;1.38;0.32;;;13.10;99.90;;;;;;5108087;27;20031;-71
2023/10/08 07:16:59;;;;;;;0.10;0.08;;;13.10;99.90;;;;;;5120657;28;20024;-70
2023/10/08 07:19:40;;;;;;;0.13;0.00;;;13.10;99.90;;;;;;5107401;28;20045;-70
2023/10/08 07:22:28;;;;;;;0.20;0.20;;;13.20;99.90;;;;;;5104222;27;20043;-72
2023/10/08 07:24:54;;;;;;;1.10;0.20;;;13.20;99.90;;;;;;5114318;27;20054;-72
2023/10/08 07:27:37;;;;;;;0.82;0.20;;;13.30;99.90;;;;;;5108390;27;20414;-72
2023/10/08 07:30:10;;;;;;;1.45;0.10;;;13.30;99.90;;;;;;5110011;27;20035;-72
2023/10/08 07:32:38;;;;;;;0.17;0.10;;;13.40;99.90;;;;;;5111976;27;20369;-72
2023/10/08 07:35:41;;;;;;;0.47;0.00;;;13.50;99.90;;;;;;5113994;27;20047;-72
2023/10/08 07:37:59;;;;;;;0.50;0.13;;;13.60;99.90;;;;;;5109820;27;20127;-72
2023/10/08 07:40:29;;;;;;;3.00;0.22;;;13.70;99.90;;;;;;5117344;27;20070;-72
2023/10/08 07:42:55;;;;;;;0.00;0.00;;;13.70;99.90;;;;;;5113916;27;20054;-72
2023/10/08 07:45:21;;;;;;;0.00;0.00;;;13.80;99.90;;;;;;5115840;28;20047;-71
2023/10/08 07:47:47;;;;;;;1.38;0.10;;;13.90;99.90;;;;;;5112915;27;20035;-72
2023/10/08 07:50:15;;;;;;;0.15;0.00;;;13.80;99.90;;;;;;5113764;27;20038;-72
2023/10/08 07:52:44;;;;;;;0.25;0.03;;;13.90;99.90;;;;;;5108544;27;20043;-72
2023/10/08 07:55:17;;;;;;;2.28;0.32;;;13.90;99.90;;;;;;5109626;27;20050;-72
2023/10/08 07:57:42;;;;;;;2.00;0.28;;;14.10;99.90;;;;;;5112789;27;20125;-72
2023/10/08 08:00:26;;;;;;;0.38;0.00;;;14.30;99.90;;;;;;5110821;27;20485;-72
2023/10/08 08:02:54;;;;;;;3.47;0.15;;;14.30;99.90;;;;;;5114950;27;20042;-72
2023/10/08 08:05:21;;;;;;;0.13;0.00;;;14.40;99.90;;;;;;5110780;27;20669;-72
2023/10/08 08:07:46;;;;;;;1.95;0.10;;;14.40;99.90;;;;;;5113128;27;20574;-72
2023/10/08 08:10:14;;;;;;;2.35;0.00;;;14.40;99.90;;;;;;5109952;27;20043;-72
2023/10/08 08:12:39;;;;;;;0.65;0.28;;;14.60;99.90;;;;;;5128915;27;20074;-72
2023/10/08 08:15:14;;;;;;;0.10;0.05;;;15.30;99.90;;;;;;5126681;27;20111;-72
2023/10/08 08:17:47;;;;;;;0.35;0.05;;;16.30;99.90;;;;;;5111401;27;20118;-73
2023/10/08 08:20:43;;;;;;;1.20;0.10;;;17.10;99.90;;;;;;5108242;27;20128;-74
2023/10/08 08:23:09;;;;;;;0.68;0.10;;;17.50;99.90;;;;;;5092155;27;20398;-72
2023/10/08 08:28:28;;;;;;;2.97;0.28;;;17.50;99.90;;;;;;5105277;27;20438;-73
2023/10/08 08:30:55;;;;;;;0.10;0.00;;;17.40;99.90;;;;;;5099640;27;20047;-71
2023/10/08 08:33:23;;;;;;;3.70;0.15;;;17.70;99.90;;;;;;5110993;27;20035;-72
2023/10/08 08:36:00;;;;;;;2.75;0.20;;;17.90;99.90;;;;;;5086821;27;20387;-72
2023/10/08 08:38:26;;;;;;;2.33;0.20;;;17.70;99.90;;;;;;5111646;27;20058;-75
2023/10/08 08:41:06;;;;;;;1.08;0.10;;;17.30;99.90;;;;;;5104711;27;20144;-70
2023/10/08 08:43:36;;;;;;;2.17;0.20;;;17.00;99.90;;;;;;5109853;27;20089;-70
2023/10/08 08:46:06;;;;;;;0.93;0.13;;;16.90;99.90;;;;;;5103593;27;20043;-72
2023/10/08 08:48:34;;;;;;;0.85;0.35;;;17.10;99.90;;;;;;5110184;27;20448;-72
2023/10/08 08:51:01;;;;;;;1.42;0.00;;;17.50;99.90;;;;;;5102634;27;20522;-73
2023/10/08 08:53:26;;;;;;;0.20;0.00;;;17.60;99.90;;;;;;5095831;27;20039;-72
2023/10/08 08:55:54;;;;;;;1.20;0.15;;;17.70;99.90;;;;;;5106394;27;20040;-74
2023/10/08 08:58:37;;;;;;;0.47;0.10;;;17.80;99.90;;;;;;5110391;27;20031;-73
2023/10/08 09:01:06;;;;;;;1.73;0.10;;;17.60;99.90;;;;;;5109331;27;20043;-73
2023/10/08 09:03:31;;;;;;;2.00;0.20;;;17.90;99.90;;;;;;5127396;27;20432;-73
2023/10/08 09:05:58;;;;;;;0.47;0.10;;;17.90;99.90;;;;;;5104717;27;20048;-73
2023/10/08 09:08:35;;;;;;;0.00;0.00;;;17.80;99.90;;;;;;5108696;27;20035;-73
2023/10/08 09:11:01;;;;;;;1.33;0.10;;;17.70;99.90;;;;;;5106150;27;20027;-73
2023/10/08 09:13:28;;;;;;;0.88;0.00;;;17.40;99.90;;;;;;5107615;27;20327;-73
2023/10/08 09:16:14;;;;;;;2.17;0.05;;;17.20;99.90;;;;;;5113452;27;20039;-73
2023/10/08 09:18:43;;;;;;;2.28;0.10;;;17.30;99.90;;;;;;5107411;27;20126;-73
2023/10/08 09:21:14;;;;;;;0.25;0.10;;;17.40;99.90;;;;;;5112155;27;20045;-74
2023/10/08 09:23:44;;;;;;;1.48;0.22;;;18.20;99.90;;;;;;5105966;27;20555;-74
2023/10/08 09:26:29;;;;;;;1.55;0.13;;;19.10;99.90;;;;;;5111908;27;20591;-74
2023/10/08 09:28:55;;;;;;;1.15;0.20;;;19.10;99.90;;;;;;5109627;27;20124;-74
2023/10/08 09:31:23;;;;;;;0.63;0.00;;;18.60;99.90;;;;;;5112091;27;20047;-74
2023/10/08 09:33:56;;;;;;;0.20;0.10;;;18.30;99.90;;;;;;5109861;27;20134;-74
2023/10/08 09:36:31;;;;;;;0.17;0.00;;;18.10;99.90;;;;;;5109643;27;20041;-73
2023/10/08 09:39:04;;;;;;;2.83;0.08;;;18.30;99.90;;;;;;5093234;27;20039;-74
2023/10/08 09:41:31;;;;;;;1.83;0.13;;;18.20;99.90;;;;;;5109288;27;20045;-74
2023/10/08 09:43:58;;;;;;;2.00;0.35;;;18.10;99.90;;;;;;5107867;27;20042;-73
2023/10/08 09:46:31;;;;;;;0.20;0.00;;;17.90;99.90;;;;;;5112420;27;20120;-76
2023/10/08 09:49:00;;;;;;;2.53;0.30;;;18.10;99.90;;;;;;5103248;27;20043;-74
2023/10/08 09:51:29;;;;;;;0.32;0.10;;;18.70;99.90;;;;;;5092034;27;20463;-75
2023/10/08 09:54:13;;;;;;;2.08;0.30;;;19.40;99.90;;;;;;5105159;27;20358;-74
2023/10/08 09:56:40;;;;;;;0.15;0.00;;;19.60;99.90;;;;;;5092000;27;20043;-74
2023/10/08 09:59:10;;;;;;;3.70;0.10;;;19.90;99.90;;;;;;5107533;27;20067;-74
2023/10/08 10:01:41;;;;;;;0.15;0.00;;;20.40;99.90;;;;;;5111422;27;20416;-75
2023/10/08 10:04:11;;;;;;;0.82;0.10;;;20.90;99.90;;;;;;5106393;27;20038;-74
2023/10/08 10:06:37;;;;;;;0.55;0.00;;;20.80;99.90;;;;;;5089036;27;20043;-74
2023/10/08 10:09:15;;;;;;;1.90;0.10;;;20.70;99.60;;;;;;5110454;27;20071;-74
2023/10/08 10:11:52;;;;;;;1.67;0.30;;;21.10;99.90;;;;;;5095788;27;20046;-74
2023/10/08 10:14:22;;;;;;;1.40;0.50;;;21.20;99.90;;;;;;5095807;27;20027;-74
2023/10/08 10:17:14;;;;;;;0.85;0.38;;;21.10;96.00;;;;;;5111049;27;20225;-74
2023/10/08 10:19:45;;;;;;;0.00;0.00;;;21.10;98.30;;;;;;5108174;27;20078;-73
2023/10/08 10:22:15;;;;;;;1.52;0.20;;;21.60;98.20;;;;;;5111384;27;20043;-73
2023/10/08 10:24:45;;;;;;;0.65;0.08;;;22.20;95.20;;;;;;5111953;28;20045;-73
2023/10/08 10:27:15;;;;;;;0.00;0.00;;;21.80;98.10;;;;;;5115365;27;20031;-73
2023/10/08 10:29:47;;;;;;;0.22;0.05;;;21.00;93.10;;;;;;5116367;27;20046;-74
2023/10/08 10:32:14;;;;;;;0.22;0.00;;;20.20;93.60;;;;;;5117219;27;20116;-73
2023/10/08 10:34:44;;;;;;;0.32;0.10;;;19.40;95.40;;;;;;5101984;27;20038;-75
2023/10/08 10:37:19;;;;;;;1.33;0.17;;;18.80;98.80;;;;;;5124038;27;20041;-76
2023/10/08 10:39:59;;;;;;;0.20;0.10;;;18.50;99.90;;;;;;5104802;27;20039;-76
2023/10/08 10:42:26;;;;;;;0.93;0.10;;;18.50;99.90;;;;;;5122441;28;20035;-76
2023/10/08 10:44:53;;;;;;;2.30;0.03;;;19.20;99.90;;;;;;5120581;28;20057;-76
2023/10/08 10:52:32;;;;;;;1.83;0.20;;;19.70;98.30;;;;;;5120109;28;20049;-76
2023/10/08 10:55:18;;;;;;;1.27;0.55;;;19.60;96.90;;;;;;5122903;28;20111;-74
2023/10/08 10:58:02;;;;;;;0.00;0.00;;;19.90;97.00;;;;;;5122620;28;20095;-76
2023/10/08 11:03:04;;;;;;;0.85;0.00;;;20.70;99.90;;;;;;5117202;28;20043;-77
2023/10/08 11:05:37;;;;;;;0.70;0.03;;;21.20;99.60;;;;;;5115925;28;20063;-76
2023/10/08 11:08:05;;;;;;;0.60;0.20;;;21.60;93.30;;;;;;5117935;28;20046;-77
2023/10/08 11:10:38;;;;;;;1.65;0.30;;;21.90;91.60;;;;;;5111140;28;20482;-77
2023/10/08 11:13:14;;;;;;;0.22;0.00;;;21.60;84.70;;;;;;5114340;28;20031;-76
2023/10/08 11:15:40;;;;;;;0.20;0.10;;;21.60;87.90;;;;;;5116629;28;20123;-77
2023/10/08 11:18:29;;;;;;;0.90;0.10;;;20.70;90.40;;;;;;5110958;28;20047;-76
2023/10/08 11:21:15;;;;;;;0.20;0.10;;;20.00;92.60;;;;;;5109263;28;20507;-76
2023/10/08 11:23:58;;;;;;;0.82;0.10;;;20.00;97.40;;;;;;5111909;28;20066;-76
2023/10/08 11:26:32;;;;;;;0.43;0.10;;;20.30;94.40;;;;;;5112847;28;20513;-75
2023/10/08 11:29:00;;;;;;;0.43;0.10;;;21.00;98.70;;;;;;5114782;27;20046;-75
2023/10/08 11:31:28;;;;;;;0.00;0.00;;;21.10;93.90;;;;;;5094514;28;20438;-75
2023/10/08 11:33:59;;;;;;;0.93;0.08;;;20.70;97.20;;;;;;5108771;28;20072;-76
2023/10/08 11:36:28;;;;;;;1.75;0.30;;;20.10;96.00;;;;;;5105311;28;20376;-75
2023/10/08 11:39:00;;;;;;;1.15;0.10;;;19.60;98.70;;;;;;5096645;28;20050;-75
2023/10/08 11:41:27;;;;;;;1.52;0.13;;;19.50;99.90;;;;;;5111704;28;20051;-75
2023/10/08 11:43:58;;;;;;;3.30;0.17;;;19.90;99.90;;;;;;5090042;28;20051;-75
2023/10/08 11:46:40;;;;;;;0.20;0.00;;;20.70;99.90;;;;;;5109906;28;20502;-76
2023/10/08 11:49:07;;;;;;;0.10;0.10;;;21.10;99.90;;;;;;5109413;28;20065;-76
2023/10/08 11:51:36;;;;;;;2.97;0.32;;;21.00;99.90;;;;;;5093604;28;20034;-76
2023/10/08 11:54:02;;;;;;;1.02;0.10;;;20.40;99.90;;;;;;5104271;28;20034;-76
2023/10/08 11:56:33;;;;;;;0.40;0.22;;;20.10;99.90;;;;;;5106918;28;20075;-76
2023/10/08 11:59:01;;;;;;;1.45;0.47;;;19.80;99.90;;;;;;5094174;28;20474;-76
2023/10/08 12:01:27;;;;;;;0.40;0.10;;;19.60;99.90;;;;;;5090940;28;20095;-78
2023/10/08 12:03:59;;;;;;;0.40;0.20;;;19.90;99.90;;;;;;5104588;28;20050;-76
2023/10/08 12:06:29;;;;;;;0.35;0.00;;;19.90;99.90;;;;;;5108518;28;20050;-76
2023/10/08 12:08:58;;;;;;;2.50;0.43;;;19.90;99.90;;;;;;5110004;27;20110;-77
2023/10/08 12:11:30;;;;;;;0.57;0.10;;;19.90;99.90;;;;;;5113029;27;20172;-76
2023/10/08 12:13:58;;;;;;;1.33;0.10;;;19.90;99.90;;;;;;5096220;27;20454;-76
2023/10/08 12:16:26;;;;;;;0.93;0.10;;;19.80;99.90;;;;;;5106605;28;20468;-79
2023/10/08 12:18:58;;;;;;;0.00;0.00;;;19.60;99.90;;;;;;5112590;27;20494;-74
2023/10/08 12:21:30;;;;;;;1.75;0.20;;;19.50;99.90;;;;;;5117464;27;20035;-75
2023/10/08 12:24:04;;;;;;;0.10;0.00;;;19.40;99.90;;;;;;5120870;27;20504;-75
2023/10/08 12:26:31;;;;;;;2.40;0.10;;;19.40;99.90;;;;;;5134641;27;20039;-75
2023/10/08 12:28:57;;;;;;;1.40;0.10;;;19.40;99.90;;;;;;5122526;27;20039;-75
2023/10/08 12:31:24;;;;;;;0.95;0.03;;;19.60;99.90;;;;;;5116776;27;20494;-75
2023/10/08 12:33:56;;;;;;;1.45;0.10;;;19.60;99.90;;;;;;5102511;27;20050;-75
2023/10/08 12:36:26;;;;;;;0.82;0.10;;;19.50;99.90;;;;;;5116078;27;20051;-75
2023/10/08 12:38:58;;;;;;;3.47;0.20;;;19.40;99.90;;;;;;5121640;27;20043;-75
2023/10/08 12:41:27;;;;;;;0.80;0.20;;;19.30;99.90;;;;;;5100401;27;20068;-75
2023/10/08 12:43:53;;;;;;;0.32;0.10;;;19.40;99.90;;;;;;5121417;27;20099;-75
2023/10/08 12:46:30;;;;;;;3.20;0.22;;;19.30;99.90;;;;;;5113882;28;20040;-75
2023/10/08 12:48:56;;;;;;;1.05;0.17;;;19.40;99.90;;;;;;5115833;28;20082;-75
2023/10/08 12:51:24;;;;;;;1.50;0.20;;;19.70;99.90;;;;;;5098937;28;20032;-75
2023/10/08 12:53:58;;;;;;;0.20;0.00;;;20.10;99.90;;;;;;5111780;28;20091;-76
2023/10/08 12:56:31;;;;;;;0.15;0.03;;;20.40;99.90;;;;;;5109796;27;20039;-76
2023/10/08 12:58:58;;;;;;;0.27;0.00;;;20.40;99.90;;;;;;5119229;28;20055;-76
2023/10/08 13:01:28;;;;;;;0.40;0.10;;;20.30;99.90;;;;;;5117466;28;20036;-76
2023/10/08 13:03:59;;;;;;;0.95;0.20;;;20.70;99.90;;;;;;5121966;28;20039;-77
2023/10/08 13:06:29;;;;;;;0.30;0.00;;;20.40;99.90;;;;;;5126639;28;20058;-75
2023/10/08 13:08:56;;;;;;;2.47;0.20;;;20.20;99.90;;;;;;5125210;28;20048;-76
2023/10/08 13:11:23;;;;;;;1.08;0.03;;;19.90;99.90;;;;;;5121152;28;20567;-78
2023/10/08 13:13:52;;;;;;;0.20;0.10;;;19.60;99.90;;;;;;5131827;28;20043;-74
2023/10/08 13:16:22;;;;;;;2.28;0.00;;;19.20;99.70;;;;;;5124015;28;20036;-74
2023/10/08 13:18:48;;;;;;;0.65;0.10;;;18.80;99.90;;;;;;5121499;28;20104;-77
2023/10/08 13:21:15;;;;;;;1.67;0.10;;;18.50;99.90;;;;;;5101755;28;20075;-76
2023/10/08 13:23:41;;;;;;;0.45;0.08;;;18.30;99.90;;;;;;5114800;28;20051;-78
2023/10/08 13:26:08;;;;;;;2.13;0.15;;;18.10;99.90;;;;;;5112756;28;20036;-78
2023/10/08 13:28:36;;;;;;;0.82;0.15;;;18.10;99.90;;;;;;5105259;28;20036;-78
2023/10/08 13:31:11;;;;;;;1.25;0.13;;;18.20;99.90;;;;;;5103032;28;20051;-77
2023/10/08 13:33:48;;;;;;;0.40;0.10;;;18.30;99.90;;;;;;5105469;28;20069;-76
2023/10/08 13:36:15;;;;;;;0.03;0.00;;;18.20;99.90;;;;;;5105367;28;20437;-77
2023/10/08 13:38:41;;;;;;;0.52;0.10;;;18.00;99.90;;;;;;5110714;28;20078;-77
2023/10/08 13:41:18;;;;;;;1.60;0.47;;;18.00;99.90;;;;;;5096512;28;20044;-77
2023/10/08 13:44:30;;;;;;;1.45;0.32;;;17.90;99.90;;;;;;5108519;28;20044;-76
2023/10/08 13:46:58;;;;;;;1.52;0.50;;;17.80;99.90;;;;;;5084157;27;20044;-74
2023/10/08 13:49:26;;;;;;;0.85;0.15;;;17.50;99.90;;;;;;5121873;27;20052;-75
2023/10/08 13:51:58;;;;;;;1.33;0.10;;;17.50;99.90;;;;;;5104265;28;20134;-75
2023/10/08 13:54:35;;;;;;;4.07;0.32;;;17.30;99.90;;;;;;5107119;28;20414;-75
2023/10/08 13:57:01;;;;;;;0.55;0.20;;;17.30;99.90;;;;;;5106189;28;20122;-75
2023/10/08 13:59:31;;;;;;;0.20;0.10;;;17.20;99.90;;;;;;5103931;28;20131;-75
2023/10/08 14:01:57;;;;;;;1.88;0.15;;;17.20;99.90;;;;;;5105874;28;20027;-75
2023/10/08 14:04:38;;;;;;;0.75;0.15;;;17.10;99.90;;;;;;5107813;28;20047;-75
2023/10/08 14:07:04;;;;;;;3.20;0.28;;;17.10;99.90;;;;;;5104483;28;20119;-75
2023/10/08 14:09:36;;;;;;;0.80;0.20;;;16.90;99.90;;;;;;5110159;28;20114;-74
2023/10/08 14:12:03;;;;;;;0.57;0.10;;;16.90;99.90;;;;;;5097412;28;20032;-74
2023/10/08 14:14:29;;;;;;;0.10;0.00;;;16.90;99.90;;;;;;5104555;28;20040;-76